Time;durP1;ratioP1;P1;durP2;ratioP2;P2;SDS_P1;SDS_P2;PMS_P1;PMS_P2;Temp;Humidity;BMP_temperature;BMP_pressure;BME280_temperature;BME280_humidity;BME280_pressure;Samples;Min_cycle;Max_cycle;Signal;HPM_P1;HPM_P2
2021/12/17 00:00:28;;;;;;;;;;;;;;;;;;5093955;28;20328;-83
2021/12/17 00:05:45;;;;;;;;;;;;;;;;;;5088441;28;19920;-84
2021/12/17 00:08:10;;;;;;;;;;;;;;;;;;5092482;28;19931;-84
2021/12/17 00:10:35;;;;;;;;;;;;;;;;;;5092571;28;20260;-84
2021/12/17 00:13:01;;;;;;;;;;;;;;;;;;5095275;28;20320;-85
2021/12/17 00:15:26;;;;;;;;;;;;;;;;;;5072932;28;19922;-85
2021/12/17 00:18:06;;;;;;;;;;;;;;;;;;5093981;28;19927;-88
2021/12/17 00:40:22;;;;;;;;;;;;;;;;;;5091557;28;19955;-85
2021/12/17 00:48:25;;;;;;;;;;;;;;;;;;5093690;28;20268;-88
2021/12/17 00:53:40;;;;;;;;;;;;;;;;;;5087683;28;19943;-83
2021/12/17 00:56:06;;;;;;;;;;;;;;;;;;5089854;28;19916;-85
2021/12/17 00:58:31;;;;;;;;;;;;;;;;;;5090725;28;20019;-83
2021/12/17 01:00:56;;;;;;;;;;;;;;;;;;5069463;28;20011;-83
2021/12/17 01:03:24;;;;;;;;;;;;;;;;;;5054456;28;20299;-83
2021/12/17 01:05:49;;;;;;;;;;;;;;;;;;5088671;28;19977;-83
2021/12/17 01:08:14;;;;;;;;;;;;;;;;;;5086415;28;19920;-83
2021/12/17 01:10:44;;;;;;;;;;;;;;;;;;5071726;28;19957;-83
2021/12/17 01:13:10;;;;;;;;;;;;;;;;;;5072616;28;19919;-83
2021/12/17 01:15:37;;;;;;;;;;;;;;;;;;5050888;28;19931;-84
2021/12/17 01:18:15;;;;;;;;;;;;;;;;;;5088765;28;19916;-83
2021/12/17 01:37:10;;;;;;;;;;;;;;;;;;5036475;28;20374;-83
2021/12/17 01:42:25;;;;;;;;;;;;;;;;;;5091440;28;19926;-83
2021/12/17 01:44:50;;;;;;;;;;;;;;;;;;5075322;28;20070;-83
2021/12/17 01:47:34;;;;;;;;;;;;;;;;;;5091840;28;20376;-84
2021/12/17 02:31:45;;;;;;;;;;;;;;;;;;5520154;23;19925;-85
2021/12/17 02:36:58;;;;;;;;;;;;;;;;;;5031998;28;20365;-83
2021/12/17 02:42:33;;;;;;;;;;;;;;;;;;5033204;28;19920;-85
2021/12/17 02:47:43;;;;;;;;;;;;;;;;;;5032151;28;19943;-81
2021/12/17 02:50:09;;;;;;;;;;;;;;;;;;5030001;28;19917;-82
2021/12/17 02:52:36;;;;;;;;;;;;;;;;;;5032485;28;19924;-81
2021/12/17 02:55:02;;;;;;;;;;;;;;;;;;5035085;28;19917;-81
2021/12/17 02:57:27;;;;;;;;;;;;;;;;;;5036004;28;19924;-82
2021/12/17 02:59:53;;;;;;;;;;;;;;;;;;5034266;28;19917;-81
2021/12/17 03:02:18;;;;;;;;;;;;;;;;;;5034495;28;20003;-83
2021/12/17 03:04:44;;;;;;;;;;;;;;;;;;5035308;28;19917;-82
2021/12/17 03:07:15;;;;;;;;;;;;;;;;;;5026861;28;19929;-84
2021/12/17 03:10:02;;;;;;;;;;;;;;;;;;5014850;28;20356;-84
2021/12/17 03:12:45;;;;;;;;;;;;;;;;;;5035937;28;19921;-84
2021/12/17 03:18:20;;;;;;;;;;;;;;;;;;5034691;28;20349;-84
2021/12/17 03:23:39;;;;;;;;;;;;;;;;;;5035638;28;20314;-84
2021/12/17 03:26:09;;;;;;;;;;;;;;;;;;5030086;28;20262;-84
2021/12/17 03:28:34;;;;;;;;;;;;;;;;;;5029188;28;19921;-83
2021/12/17 03:31:00;;;;;;;;;;;;;;;;;;5033191;28;20027;-83
2021/12/17 03:33:25;;;;;;;;;;;;;;;;;;5034744;28;20377;-83
2021/12/17 03:35:50;;;;;;;;;;;;;;;;;;5035651;28;19920;-83
2021/12/17 03:38:18;;;;;;;;;;;;;;;;;;5033226;28;19940;-84
2021/12/17 03:40:45;;;;;;;;;;;;;;;;;;5034147;28;19921;-84
2021/12/17 03:43:12;;;;;;;;;;;;;;;;;;5034438;28;19933;-85
2021/12/17 03:45:41;;;;;;;;;;;;;;;;;;5032029;28;19917;-83
2021/12/17 03:48:07;;;;;;;;;;;;;;;;;;5033198;28;19917;-83
2021/12/17 03:50:35;;;;;;;;;;;;;;;;;;5033694;28;20557;-83
2021/12/17 03:53:00;;;;;;;;;;;;;;;;;;5034847;28;19964;-84
2021/12/17 03:55:26;;;;;;;;;;;;;;;;;;5034143;28;19965;-84
2021/12/17 03:57:51;;;;;;;;;;;;;;;;;;5034669;28;20404;-84
2021/12/17 04:00:16;;;;;;;;;;;;;;;;;;5033547;28;20004;-84
2021/12/17 04:02:42;;;;;;;;;;;;;;;;;;5015915;28;19917;-84
2021/12/17 04:05:07;;;;;;;;;;;;;;;;;;5033891;28;20269;-84
2021/12/17 04:07:32;;;;;;;;;;;;;;;;;;5033417;28;19917;-84
2021/12/17 04:09:57;;;;;;;;;;;;;;;;;;5034006;28;19917;-84
2021/12/17 04:12:35;;;;;;;;;;;;;;;;;;5033470;28;20392;-84
2021/12/17 04:15:01;;;;;;;;;;;;;;;;;;5034106;28;19917;-85
2021/12/17 04:17:26;;;;;;;;;;;;;;;;;;5034531;28;20298;-85
2021/12/17 04:19:51;;;;;;;;;;;;;;;;;;5034343;28;19971;-85
2021/12/17 04:22:17;;;;;;;;;;;;;;;;;;5015709;28;19921;-85
2021/12/17 04:24:42;;;;;;;;;;;;;;;;;;5033668;28;19927;-83
2021/12/17 04:27:07;;;;;;;;;;;;;;;;;;5032046;28;20008;-84
2021/12/17 04:29:39;;;;;;;;;;;;;;;;;;5033939;28;19963;-84
2021/12/17 04:32:04;;;;;;;;;;;;;;;;;;5032050;28;19921;-85
2021/12/17 04:34:30;;;;;;;;;;;;;;;;;;5033099;28;19924;-85
2021/12/17 04:36:56;;;;;;;;;;;;;;;;;;5032875;28;20498;-85
2021/12/17 04:39:23;;;;;;;;;;;;;;;;;;5033318;28;19916;-85
2021/12/17 04:41:56;;;;;;;;;;;;;;;;;;5033733;28;19914;-85
2021/12/17 04:44:28;;;;;;;;;;;;;;;;;;5032692;28;19918;-86
2021/12/17 04:57:16;;;;;;;;;;;;;;;;;;5033857;28;20011;-85
2021/12/17 04:58:00;;;;;;;;;;;;;;;;;;5032317;28;19947;-84
2021/12/17 05:00:27;;;;;;;;;;;;;;;;;;5030655;28;19964;-84
2021/12/17 05:02:56;;;;;;;;;;;;;;;;;;5026464;28;19921;-84
2021/12/17 05:05:26;;;;;;;;;;;;;;;;;;5009196;28;20327;-84
2021/12/17 05:07:59;;;;;;;;;;;;;;;;;;5029484;28;19975;-84
2021/12/17 05:10:43;;;;;;;;;;;;;;;;;;5032393;28;20431;-85
2021/12/17 05:21:10;;;;;;;;;;;;;;;;;;5033901;28;19967;-82
2021/12/17 05:23:41;;;;;;;;;;;;;;;;;;5033093;28;19921;-82
2021/12/17 05:26:08;;;;;;;;;;;;;;;;;;5033640;28;19983;-82
2021/12/17 05:28:33;;;;;;;;;;;;;;;;;;5030589;28;19921;-82
2021/12/17 05:30:59;;;;;;;;;;;;;;;;;;5032388;28;19921;-81
2021/12/17 05:33:24;;;;;;;;;;;;;;;;;;5033488;28;20361;-82
2021/12/17 05:35:50;;;;;;;;;;;;;;;;;;5032778;28;19925;-81
2021/12/17 05:38:16;;;;;;;;;;;;;;;;;;5029930;28;19917;-83
2021/12/17 05:40:41;;;;;;;;;;;;;;;;;;5032631;28;20350;-83
2021/12/17 05:43:10;;;;;;;;;;;;;;;;;;5032115;28;19917;-83
2021/12/17 05:45:47;;;;;;;;;;;;;;;;;;5033867;28;19924;-82
2021/12/17 05:48:12;;;;;;;;;;;;;;;;;;5032192;28;20341;-82
2021/12/17 05:50:39;;;;;;;;;;;;;;;;;;5030959;28;20011;-81
2021/12/17 05:53:04;;;;;;;;;;;;;;;;;;5033246;28;19972;-83
2021/12/17 05:55:29;;;;;;;;;;;;;;;;;;5032352;28;19963;-84
2021/12/17 05:57:57;;;;;;;;;;;;;;;;;;5015170;28;19974;-82
2021/12/17 06:00:23;;;;;;;;;;;;;;;;;;5030898;28;19923;-82
2021/12/17 06:02:51;;;;;;;;;;;;;;;;;;5031052;28;19917;-81
2021/12/17 06:05:16;;;;;;;;;;;;;;;;;;5015508;28;19932;-81
2021/12/17 06:07:42;;;;;;;;;;;;;;;;;;5029951;28;19918;-81
2021/12/17 06:10:09;;;;;;;;;;;;;;;;;;5027523;28;20011;-81
2021/12/17 06:12:34;;;;;;;;;;;;;;;;;;5031480;28;19928;-82
2021/12/17 06:15:00;;;;;;;;;;;;;;;;;;5031878;28;19917;-83
2021/12/17 06:17:26;;;;;;;;;;;;;;;;;;5033065;28;19921;-82
2021/12/17 06:19:51;;;;;;;;;;;;;;;;;;5032883;28;20397;-82
2021/12/17 06:22:17;;;;;;;;;;;;;;;;;;5030789;28;19971;-82
2021/12/17 06:24:44;;;;;;;;;;;;;;;;;;5031542;28;20362;-82
2021/12/17 06:27:11;;;;;;;;;;;;;;;;;;5031221;28;19927;-82
2021/12/17 06:29:36;;;;;;;;;;;;;;;;;;5036130;28;20015;-82
2021/12/17 06:32:01;;;;;;;;;;;;;;;;;;5036176;28;20458;-82
2021/12/17 06:34:26;;;;;;;;;;;;;;;;;;5034000;28;19921;-82
2021/12/17 06:36:52;;;;;;;;;;;;;;;;;;5019503;28;19917;-82
2021/12/17 06:39:19;;;;;;;;;;;;;;;;;;5035950;28;20062;-82
2021/12/17 06:41:44;;;;;;;;;;;;;;;;;;5035518;28;20251;-82
2021/12/17 06:44:13;;;;;;;;;;;;;;;;;;5036064;28;19943;-82
2021/12/17 06:47:06;;;;;;;;;;;;;;;;;;5029991;28;19943;-83
2021/12/17 07:10:49;;;;;;;;;;;;;;;;;;5016506;28;19929;-86
2021/12/17 07:39:55;;;;;;;;;;;;;;;;;;5035292;28;19966;-83
2021/12/17 07:42:24;;;;;;;;;;;;;;;;;;5035672;28;19913;-83
2021/12/17 07:44:50;;;;;;;;;;;;;;;;;;5033234;28;19917;-83
2021/12/17 07:47:15;;;;;;;;;;;;;;;;;;5035669;28;19974;-82
2021/12/17 07:49:42;;;;;;;;;;;;;;;;;;5034848;28;20372;-82
2021/12/17 07:52:10;;;;;;;;;;;;;;;;;;5035581;28;19917;-83
2021/12/17 07:54:35;;;;;;;;;;;;;;;;;;5035369;28;19924;-82
2021/12/17 07:57:00;;;;;;;;;;;;;;;;;;5035270;28;19917;-82
2021/12/17 07:59:25;;;;;;;;;;;;;;;;;;5034717;28;19925;-82
2021/12/17 08:01:51;;;;;;;;;;;;;;;;;;5029237;28;19917;-82
2021/12/17 08:04:16;;;;;;;;;;;;;;;;;;5027627;28;20070;-82
2021/12/17 08:06:41;;;;;;;;;;;;;;;;;;5035264;28;19967;-83
2021/12/17 08:09:09;;;;;;;;;;;;;;;;;;5027161;28;19916;-82
2021/12/17 08:11:38;;;;;;;;;;;;;;;;;;5033865;28;19948;-82
2021/12/17 08:14:07;;;;;;;;;;;;;;;;;;5032065;28;19923;-82
2021/12/17 08:16:44;;;;;;;;;;;;;;;;;;5018500;28;19917;-82
2021/12/17 08:27:26;;;;;;;;;;;;;;;;;;5034924;28;20374;-82
2021/12/17 08:32:17;;;;;;;;;;;;;;;;;;5031454;28;20346;-83
2021/12/17 08:34:42;;;;;;;;;;;;;;;;;;5032545;28;19928;-82
2021/12/17 08:37:07;;;;;;;;;;;;;;;;;;5034985;28;19913;-83
2021/12/17 08:39:33;;;;;;;;;;;;;;;;;;5032994;28;19917;-83
2021/12/17 08:42:00;;;;;;;;;;;;;;;;;;5034179;28;20346;-82
2021/12/17 08:44:28;;;;;;;;;;;;;;;;;;5032214;28;20008;-83
2021/12/17 08:46:53;;;;;;;;;;;;;;;;;;5032648;28;19928;-83
2021/12/17 08:49:18;;;;;;;;;;;;;;;;;;5027735;28;19917;-83
2021/12/17 08:51:44;;;;;;;;;;;;;;;;;;5033363;28;19921;-83
2021/12/17 08:54:09;;;;;;;;;;;;;;;;;;5033716;28;19917;-83
2021/12/17 08:56:42;;;;;;;;;;;;;;;;;;5034476;28;19921;-83
2021/12/17 08:59:08;;;;;;;;;;;;;;;;;;5026900;28;20277;-83
2021/12/17 09:01:35;;;;;;;;;;;;;;;;;;5032309;28;20019;-83
2021/12/17 09:04:01;;;;;;;;;;;;;;;;;;5032434;28;19924;-82
2021/12/17 09:06:28;;;;;;;;;;;;;;;;;;5034866;28;19916;-83
2021/12/17 09:08:59;;;;;;;;;;;;;;;;;;5032664;28;19924;-83
2021/12/17 09:11:25;;;;;;;;;;;;;;;;;;5033972;28;19925;-83
2021/12/17 09:13:54;;;;;;;;;;;;;;;;;;5033684;28;20469;-83
2021/12/17 09:16:23;;;;;;;;;;;;;;;;;;5032011;28;19917;-83
2021/12/17 09:18:48;;;;;;;;;;;;;;;;;;5033821;28;19917;-83
2021/12/17 09:21:14;;;;;;;;;;;;;;;;;;5033612;28;19974;-83
2021/12/17 09:23:39;;;;;;;;;;;;;;;;;;5032685;28;19917;-83
2021/12/17 09:26:04;;;;;;;;;;;;;;;;;;5031821;28;19917;-84
2021/12/17 09:28:31;;;;;;;;;;;;;;;;;;5034765;28;19916;-84
2021/12/17 09:30:57;;;;;;;;;;;;;;;;;;5033665;28;19932;-84
2021/12/17 09:33:22;;;;;;;;;;;;;;;;;;5026688;28;19917;-84
2021/12/17 09:35:47;;;;;;;;;;;;;;;;;;5033127;28;19952;-83
2021/12/17 09:38:12;;;;;;;;;;;;;;;;;;5027418;28;19964;-83
2021/12/17 09:40:40;;;;;;;;;;;;;;;;;;5034305;28;19927;-83
2021/12/17 09:43:06;;;;;;;;;;;;;;;;;;5032217;28;19917;-83
2021/12/17 09:45:31;;;;;;;;;;;;;;;;;;5031446;28;20239;-83
2021/12/17 09:47:56;;;;;;;;;;;;;;;;;;5042736;28;19925;-84
2021/12/17 09:50:21;;;;;;;;;;;;;;;;;;5033015;28;19925;-83
2021/12/17 09:52:47;;;;;;;;;;;;;;;;;;5033348;28;20473;-83
2021/12/17 09:55:12;;;;;;;;;;;;;;;;;;5032927;28;19917;-83
2021/12/17 09:57:37;;;;;;;;;;;;;;;;;;5033179;28;19913;-83
2021/12/17 10:00:04;;;;;;;;;;;;;;;;;;5032223;28;19928;-83
2021/12/17 10:02:29;;;;;;;;;;;;;;;;;;5029944;28;19917;-83
2021/12/17 10:04:55;;;;;;;;;;;;;;;;;;5029685;28;19979;-83
2021/12/17 10:07:24;;;;;;;;;;;;;;;;;;5032781;28;20373;-83
2021/12/17 10:09:50;;;;;;;;;;;;;;;;;;5032018;28;20289;-83
2021/12/17 10:12:16;;;;;;;;;;;;;;;;;;5033330;28;20484;-83
2021/12/17 10:14:42;;;;;;;;;;;;;;;;;;5031833;28;19945;-83
2021/12/17 10:17:08;;;;;;;;;;;;;;;;;;5031346;28;19921;-83
2021/12/17 10:19:40;;;;;;;;;;;;;;;;;;5030532;28;19917;-83
2021/12/17 10:22:09;;;;;;;;;;;;;;;;;;5028309;28;19913;-84
2021/12/17 10:24:36;;;;;;;;;;;;;;;;;;5024011;28;20339;-84
2021/12/17 10:27:01;;;;;;;;;;;;;;;;;;5032466;28;20368;-84
2021/12/17 10:29:40;;;;;;;;;;;;;;;;;;5031042;28;19921;-87
2021/12/17 10:32:07;;;;;;;;;;;;;;;;;;5028506;28;19932;-82
2021/12/17 10:34:32;;;;;;;;;;;;;;;;;;5033262;28;19972;-82
2021/12/17 10:40:37;;;;;;;;;;;;;;;;;;5031764;28;19925;-80
2021/12/17 10:43:08;;;;;;;;;;;;;;;;;;5025217;28;19932;-81
2021/12/17 10:45:58;;;;;;;;;;;;;;;;;;5028036;28;19917;-81
2021/12/17 10:51:07;;;;;;;;;;;;;;;;;;5032964;28;19929;-80
2021/12/17 10:53:33;;;;;;;;;;;;;;;;;;5033687;28;19952;-81
2021/12/17 10:55:59;;;;;;;;;;;;;;;;;;5035185;28;19948;-82
2021/12/17 10:58:33;;;;;;;;;;;;;;;;;;5017870;28;20011;-81
2021/12/17 11:01:01;;;;;;;;;;;;;;;;;;5033878;28;19939;-81
2021/12/17 11:03:29;;;;;;;;;;;;;;;;;;5033836;28;19932;-81
2021/12/17 11:05:55;;;;;;;;;;;;;;;;;;5037094;28;20350;-82
2021/12/17 11:08:24;;;;;;;;;;;;;;;;;;5031187;28;19979;-82
2021/12/17 11:11:14;;;;;;;;;;;;;;;;;;5030644;28;19917;-81
2021/12/17 11:13:53;;;;;;;;;;;;;;;;;;5030434;28;19917;-81
2021/12/17 11:16:21;;;;;;;;;;;;;;;;;;5036167;28;19917;-81
2021/12/17 11:18:56;;;;;;;;;;;;;;;;;;5036417;28;20492;-79
2021/12/17 11:21:21;;;;;;;;;;;;;;;;;;5033738;28;19925;-81
2021/12/17 11:23:47;;;;;;;;;;;;;;;;;;5034345;28;19921;-81
2021/12/17 11:26:15;;;;;;;;;;;;;;;;;;5035949;28;19917;-81
2021/12/17 11:28:40;;;;;;;;;;;;;;;;;;5036537;28;19929;-80
2021/12/17 11:31:06;;;;;;;;;;;;;;;;;;5034035;28;20378;-80
2021/12/17 11:33:31;;;;;;;;;;;;;;;;;;5033590;28;20007;-80
2021/12/17 11:35:56;;;;;;;;;;;;;;;;;;5034972;28;19936;-81
2021/12/17 11:38:21;;;;;;;;;;;;;;;;;;5033712;28;19987;-81
2021/12/17 11:40:48;;;;;;;;;;;;;;;;;;5034246;28;19921;-80
2021/12/17 11:43:17;;;;;;;;;;;;;;;;;;5030019;28;19917;-80
2021/12/17 11:45:55;;;;;;;;;;;;;;;;;;5036371;28;20393;-81
2021/12/17 11:48:22;;;;;;;;;;;;;;;;;;5031484;28;19917;-81
2021/12/17 11:50:52;;;;;;;;;;;;;;;;;;5035161;28;19975;-81
2021/12/17 11:53:22;;;;;;;;;;;;;;;;;;5034347;28;19921;-81
2021/12/17 11:55:48;;;;;;;;;;;;;;;;;;5034958;28;19921;-81
2021/12/17 11:58:33;;;;;;;;;;;;;;;;;;5034661;28;19960;-81
2021/12/17 12:00:58;;;;;;;;;;;;;;;;;;5034560;28;19917;-80
2021/12/17 12:03:24;;;;;;;;;;;;;;;;;;5036823;28;19925;-81
2021/12/17 12:05:50;;;;;;;;;;;;;;;;;;5034451;28;19917;-81
2021/12/17 12:08:24;;;;;;;;;;;;;;;;;;5034619;28;19927;-80
2021/12/17 12:11:08;;;;;;;;;;;;;;;;;;5035802;28;20004;-81
2021/12/17 12:13:34;;;;;;;;;;;;;;;;;;5035550;28;19921;-80
2021/12/17 12:16:06;;;;;;;;;;;;;;;;;;5035796;28;19921;-80
2021/12/17 12:19:01;;;;;;;;;;;;;;;;;;5034500;28;19917;-80
2021/12/17 12:21:51;;;;;;;;;;;;;;;;;;5021498;28;19986;-83
2021/12/17 12:24:19;;;;;;;;;;;;;;;;;;5031985;28;19932;-84
2021/12/17 12:26:49;;;;;;;;;;;;;;;;;;5034271;28;19928;-84
2021/12/17 12:29:15;;;;;;;;;;;;;;;;;;5027900;28;19935;-86
2021/12/17 12:31:41;;;;;;;;;;;;;;;;;;5025867;28;19921;-84
2021/12/17 12:34:07;;;;;;;;;;;;;;;;;;5022774;28;19983;-85
2021/12/17 12:36:43;;;;;;;;;;;;;;;;;;5050286;28;19917;-85
2021/12/17 12:39:35;;;;;;;;;;;;;;;;;;5029969;28;19922;-81
2021/12/17 12:42:19;;;;;;;;;;;;;;;;;;4984066;28;19921;-81
2021/12/17 12:44:44;;;;;;;;;;;;;;;;;;5028772;28;19917;-82
2021/12/17 12:47:12;;;;;;;;;;;;;;;;;;5037536;28;20004;-83
2021/12/17 12:49:41;;;;;;;;;;;;;;;;;;5035264;28;19918;-83
2021/12/17 12:52:24;;;;;;;;;;;;;;;;;;5032627;28;19920;-83
2021/12/17 12:54:53;;;;;;;;;;;;;;;;;;5032146;28;20348;-82
2021/12/17 12:57:28;;;;;;;;;;;;;;;;;;5035945;28;19917;-84
2021/12/17 12:59:57;;;;;;;;;;;;;;;;;;5025917;28;20020;-84
2021/12/17 13:02:26;;;;;;;;;;;;;;;;;;5030877;28;20317;-83
2021/12/17 13:04:55;;;;;;;;;;;;;;;;;;5030428;28;19917;-81
2021/12/17 13:07:34;;;;;;;;;;;;;;;;;;5013958;28;20015;-84
2021/12/17 13:10:10;;;;;;;;;;;;;;;;;;5032228;28;19917;-82
2021/12/17 13:12:39;;;;;;;;;;;;;;;;;;5023777;28;19929;-81
2021/12/17 13:15:19;;;;;;;;;;;;;;;;;;5036073;28;20057;-82
2021/12/17 13:23:22;;;;;;;;;;;;;;;;;;5021895;28;19921;-86
2021/12/17 13:26:04;;;;;;;;;;;;;;;;;;5013846;28;19917;-82
2021/12/17 13:28:50;;;;;;;;;;;;;;;;;;5030282;28;19925;-81
2021/12/17 13:31:33;;;;;;;;;;;;;;;;;;5030587;28;20278;-82
2021/12/17 13:33:59;;;;;;;;;;;;;;;;;;5030212;28;19917;-82
2021/12/17 13:36:24;;;;;;;;;;;;;;;;;;5028915;28;19917;-82
2021/12/17 13:38:58;;;;;;;;;;;;;;;;;;5012359;28;20475;-82
2021/12/17 13:41:45;;;;;;;;;;;;;;;;;;5029722;28;19917;-85
2021/12/17 13:44:35;;;;;;;;;;;;;;;;;;5013336;28;19926;-83
2021/12/17 13:47:10;;;;;;;;;;;;;;;;;;5032565;28;19913;-89
2021/12/17 13:49:35;;;;;;;;;;;;;;;;;;5031209;28;19960;-88
2021/12/17 13:52:00;;;;;;;;;;;;;;;;;;5031795;28;19921;-88
2021/12/17 13:54:25;;;;;;;;;;;;;;;;;;5032921;28;19917;-88
2021/12/17 13:56:57;;;;;;;;;;;;;;;;;;5032832;28;19913;-88
2021/12/17 13:59:33;;;;;;;;;;;;;;;;;;5031494;28;20349;-88
2021/12/17 14:01:59;;;;;;;;;;;;;;;;;;5024746;28;19924;-87
2021/12/17 14:04:24;;;;;;;;;;;;;;;;;;5032179;28;20331;-88
2021/12/17 14:06:53;;;;;;;;;;;;;;;;;;5015451;28;19917;-88
2021/12/17 14:09:19;;;;;;;;;;;;;;;;;;5031584;28;19927;-90
2021/12/17 14:11:45;;;;;;;;;;;;;;;;;;5033080;28;19917;-90
2021/12/17 14:14:21;;;;;;;;;;;;;;;;;;5015819;28;20309;-88
2021/12/17 14:16:46;;;;;;;;;;;;;;;;;;5034261;28;20330;-88
2021/12/17 14:19:13;;;;;;;;;;;;;;;;;;5034580;28;19927;-89
2021/12/17 14:21:40;;;;;;;;;;;;;;;;;;5032175;28;19921;-83
2021/12/17 14:24:06;;;;;;;;;;;;;;;;;;5011704;28;19924;-82
2021/12/17 14:26:34;;;;;;;;;;;;;;;;;;5028770;28;20259;-83
2021/12/17 14:29:09;;;;;;;;;;;;;;;;;;5033094;28;19916;-83
2021/12/17 14:31:35;;;;;;;;;;;;;;;;;;5033282;28;20372;-83
2021/12/17 14:34:00;;;;;;;;;;;;;;;;;;5033383;28;19913;-83
2021/12/17 14:36:29;;;;;;;;;;;;;;;;;;5032169;28;19917;-83
2021/12/17 14:39:10;;;;;;;;;;;;;;;;;;5027346;28;20052;-83
2021/12/17 14:41:47;;;;;;;;;;;;;;;;;;5031281;28;20381;-82
2021/12/17 14:46:52;;;;;;;;;;;;;;;;;;5028007;28;19921;-83
2021/12/17 15:02:43;;;;;;;;;;;;;;;;;;5036624;28;20000;-83
2021/12/17 15:05:08;;;;;;;;;;;;;;;;;;5036176;28;19917;-83
2021/12/17 15:07:34;;;;;;;;;;;;;;;;;;5035981;28;19943;-84
2021/12/17 15:09:59;;;;;;;;;;;;;;;;;;5035867;28;20326;-83
2021/12/17 15:12:37;;;;;;;;;;;;;;;;;;5035105;28;19921;-83
2021/12/17 15:15:07;;;;;;;;;;;;;;;;;;5035281;28;19917;-83
2021/12/17 15:20:53;;;;;;;;;;;;;;;;;;5036139;28;19978;-84
2021/12/17 15:23:19;;;;;;;;;;;;;;;;;;5029846;28;19913;-84
2021/12/17 15:25:47;;;;;;;;;;;;;;;;;;5035298;28;19944;-84
2021/12/17 15:28:17;;;;;;;;;;;;;;;;;;5036533;28;19913;-85
2021/12/17 15:30:46;;;;;;;;;;;;;;;;;;5035190;28;20270;-84
2021/12/17 15:33:12;;;;;;;;;;;;;;;;;;5034968;28;19929;-83
2021/12/17 15:35:38;;;;;;;;;;;;;;;;;;5035937;28;19928;-83
2021/12/17 15:38:08;;;;;;;;;;;;;;;;;;5035207;28;19967;-83
2021/12/17 15:40:34;;;;;;;;;;;;;;;;;;5035756;28;20390;-84
2021/12/17 15:43:02;;;;;;;;;;;;;;;;;;5035441;28;19928;-83
2021/12/17 15:45:28;;;;;;;;;;;;;;;;;;5035735;28;20262;-88
2021/12/17 15:47:53;;;;;;;;;;;;;;;;;;5034587;28;20329;-88
2021/12/17 15:50:19;;;;;;;;;;;;;;;;;;5036749;28;19952;-80
2021/12/17 15:52:47;;;;;;;;;;;;;;;;;;5036453;28;20008;-82
2021/12/17 15:55:15;;;;;;;;;;;;;;;;;;5029165;28;19971;-81
2021/12/17 15:57:40;;;;;;;;;;;;;;;;;;5035981;28;19957;-81
2021/12/17 16:00:06;;;;;;;;;;;;;;;;;;5018945;28;19913;-82
2021/12/17 16:02:31;;;;;;;;;;;;;;;;;;5035954;28;19921;-82
2021/12/17 16:04:57;;;;;;;;;;;;;;;;;;5035023;28;19967;-81
2021/12/17 16:07:22;;;;;;;;;;;;;;;;;;5034818;28;20330;-81
2021/12/17 16:23:16;;;;;;;;;;;;;;;;;;5040875;28;20393;-83
2021/12/17 16:25:42;;;;;;;;;;;;;;;;;;5041357;28;19913;-81
2021/12/17 16:28:07;;;;;;;;;;;;;;;;;;5035316;28;19924;-82
2021/12/17 16:30:32;;;;;;;;;;;;;;;;;;5035239;28;19917;-83
2021/12/17 16:32:57;;;;;;;;;;;;;;;;;;5034568;28;19925;-84
2021/12/17 16:35:25;;;;;;;;;;;;;;;;;;5035419;28;19977;-83
2021/12/17 16:37:50;;;;;;;;;;;;;;;;;;5034423;28;19928;-83
2021/12/17 16:40:16;;;;;;;;;;;;;;;;;;5016146;28;20266;-84
2021/12/17 16:42:41;;;;;;;;;;;;;;;;;;5036778;28;19978;-83
2021/12/17 16:47:53;;;;;;;;;;;;;;;;;;5030692;28;19963;-86
2021/12/17 16:50:19;;;;;;;;;;;;;;;;;;5027334;28;19997;-85
2021/12/17 16:52:52;;;;;;;;;;;;;;;;;;5034573;28;19917;-88
2021/12/17 16:55:20;;;;;;;;;;;;;;;;;;5034178;28;19928;-85
2021/12/17 16:57:52;;;;;;;;;;;;;;;;;;5034205;28;20043;-87
2021/12/17 17:00:17;;;;;;;;;;;;;;;;;;5051443;28;19921;-86
2021/12/17 17:02:44;;;;;;;;;;;;;;;;;;5034957;28;19956;-86
2021/12/17 17:05:10;;;;;;;;;;;;;;;;;;5033404;28;19939;-85
2021/12/17 17:07:38;;;;;;;;;;;;;;;;;;5033872;28;20442;-82
2021/12/17 17:10:03;;;;;;;;;;;;;;;;;;5033475;28;19983;-84
2021/12/17 17:12:31;;;;;;;;;;;;;;;;;;5038703;28;19960;-84
2021/12/17 17:14:56;;;;;;;;;;;;;;;;;;5017807;28;19913;-84
2021/12/17 17:17:23;;;;;;;;;;;;;;;;;;5034098;28;20016;-84
2021/12/17 17:19:49;;;;;;;;;;;;;;;;;;5034433;28;19922;-85
2021/12/17 17:22:15;;;;;;;;;;;;;;;;;;5030718;28;19928;-85
2021/12/17 17:24:40;;;;;;;;;;;;;;;;;;5033753;28;19952;-86
2021/12/17 17:27:06;;;;;;;;;;;;;;;;;;5033628;28;19952;-87
2021/12/17 17:29:31;;;;;;;;;;;;;;;;;;5030909;28;19979;-82
2021/12/17 17:32:02;;;;;;;;;;;;;;;;;;5031315;28;20016;-82
2021/12/17 17:34:29;;;;;;;;;;;;;;;;;;5032146;28;19932;-90
2021/12/17 17:36:55;;;;;;;;;;;;;;;;;;5034325;28;19913;-90
2021/12/17 17:39:20;;;;;;;;;;;;;;;;;;5033751;28;20310;-88
2021/12/17 17:41:45;;;;;;;;;;;;;;;;;;5033131;28;19944;-85
2021/12/17 17:44:11;;;;;;;;;;;;;;;;;;5033629;28;19917;-87
2021/12/17 17:46:39;;;;;;;;;;;;;;;;;;5031737;28;20412;-85
2021/12/17 17:49:08;;;;;;;;;;;;;;;;;;5032973;28;20404;-85
2021/12/17 17:51:41;;;;;;;;;;;;;;;;;;5031297;28;20334;-85
2021/12/17 17:54:06;;;;;;;;;;;;;;;;;;5033135;28;20258;-85
2021/12/17 17:56:41;;;;;;;;;;;;;;;;;;5032707;28;19974;-86
2021/12/17 17:59:06;;;;;;;;;;;;;;;;;;5032899;28;19917;-85
2021/12/17 18:01:32;;;;;;;;;;;;;;;;;;5032941;28;19917;-84
2021/12/17 18:04:04;;;;;;;;;;;;;;;;;;5032627;28;20060;-86
2021/12/17 18:09:14;;;;;;;;;;;;;;;;;;5030226;28;20289;-89
2021/12/17 18:11:49;;;;;;;;;;;;;;;;;;5032510;28;19978;-88
2021/12/17 18:14:18;;;;;;;;;;;;;;;;;;5032905;28;19917;-88
2021/12/17 18:16:43;;;;;;;;;;;;;;;;;;5030698;28;19917;-86
2021/12/17 18:19:08;;;;;;;;;;;;;;;;;;5030401;28;19917;-86
2021/12/17 18:21:34;;;;;;;;;;;;;;;;;;5028950;28;19917;-87
2021/12/17 18:23:59;;;;;;;;;;;;;;;;;;5034252;28;19917;-87
2021/12/17 18:26:39;;;;;;;;;;;;;;;;;;5032854;28;19917;-88
2021/12/17 18:29:04;;;;;;;;;;;;;;;;;;5032227;28;19936;-86
2021/12/17 18:31:32;;;;;;;;;;;;;;;;;;5033573;28;19921;-85
2021/12/17 18:33:58;;;;;;;;;;;;;;;;;;5019303;28;19917;-86
2021/12/17 18:36:23;;;;;;;;;;;;;;;;;;5035767;28;19917;-86
2021/12/17 18:38:48;;;;;;;;;;;;;;;;;;5034188;28;19917;-88
2021/12/17 18:41:31;;;;;;;;;;;;;;;;;;5035156;28;19917;-86
2021/12/17 18:44:05;;;;;;;;;;;;;;;;;;5019761;28;19944;-83
2021/12/17 18:46:30;;;;;;;;;;;;;;;;;;5034995;28;19916;-83
2021/12/17 18:48:56;;;;;;;;;;;;;;;;;;5036082;28;19924;-85
2021/12/17 18:51:37;;;;;;;;;;;;;;;;;;5029827;28;19993;-84
2021/12/17 18:54:02;;;;;;;;;;;;;;;;;;5035123;28;19925;-87
2021/12/17 18:56:40;;;;;;;;;;;;;;;;;;5033412;28;19948;-86
2021/12/17 18:59:33;;;;;;;;;;;;;;;;;;5034999;28;19948;-81
2021/12/17 19:02:00;;;;;;;;;;;;;;;;;;5030457;28;19917;-80
2021/12/17 19:04:28;;;;;;;;;;;;;;;;;;5035754;28;19913;-80
2021/12/17 19:06:55;;;;;;;;;;;;;;;;;;5036236;28;19921;-81
2021/12/17 19:09:20;;;;;;;;;;;;;;;;;;5036038;28;20350;-80
2021/12/17 19:11:46;;;;;;;;;;;;;;;;;;5036950;28;19928;-80
2021/12/17 19:14:12;;;;;;;;;;;;;;;;;;5035190;28;20350;-80
2021/12/17 19:16:44;;;;;;;;;;;;;;;;;;5036690;28;19917;-80
2021/12/17 19:19:20;;;;;;;;;;;;;;;;;;5036433;28;20375;-80
2021/12/17 19:24:20;;;;;;;;;;;;;;;;;;5036384;28;19913;-79
2021/12/17 19:26:48;;;;;;;;;;;;;;;;;;5036100;28;19943;-80
2021/12/17 19:29:13;;;;;;;;;;;;;;;;;;5036075;28;20357;-79
2021/12/17 19:31:39;;;;;;;;;;;;;;;;;;5036058;28;19931;-79
2021/12/17 19:34:04;;;;;;;;;;;;;;;;;;5036110;28;19924;-80
2021/12/17 19:36:36;;;;;;;;;;;;;;;;;;5035639;28;19917;-80
2021/12/17 19:39:02;;;;;;;;;;;;;;;;;;5033966;28;19923;-80
2021/12/17 19:42:04;;;;;;;;;;;;;;;;;;5033209;28;19928;-81
2021/12/17 19:44:30;;;;;;;;;;;;;;;;;;5035217;28;19952;-80
2021/12/17 19:47:20;;;;;;;;;;;;;;;;;;5033609;28;19955;-81
2021/12/17 19:52:06;;;;;;;;;;;;;;;;;;5034554;28;19977;-81
2021/12/17 19:54:34;;;;;;;;;;;;;;;;;;5034486;28;19917;-80
2021/12/17 19:57:00;;;;;;;;;;;;;;;;;;5033596;28;20280;-81
2021/12/17 19:59:25;;;;;;;;;;;;;;;;;;5035364;28;19913;-80
2021/12/17 20:01:55;;;;;;;;;;;;;;;;;;5035631;28;19913;-81
2021/12/17 20:04:20;;;;;;;;;;;;;;;;;;5035228;28;19917;-81
2021/12/17 20:06:47;;;;;;;;;;;;;;;;;;5034909;28;19925;-81
2021/12/17 20:09:13;;;;;;;;;;;;;;;;;;5035869;28;19917;-81
2021/12/17 20:11:39;;;;;;;;;;;;;;;;;;5034296;28;20377;-80
2021/12/17 20:14:07;;;;;;;;;;;;;;;;;;5034679;28;19971;-80
2021/12/17 20:16:33;;;;;;;;;;;;;;;;;;5035686;28;20007;-80
2021/12/17 20:18:58;;;;;;;;;;;;;;;;;;5035001;28;20294;-80
2021/12/17 20:21:25;;;;;;;;;;;;;;;;;;5035235;28;19952;-80
2021/12/17 20:23:51;;;;;;;;;;;;;;;;;;5035529;28;19913;-80
2021/12/17 20:26:17;;;;;;;;;;;;;;;;;;5035187;28;20484;-80
2021/12/17 20:28:48;;;;;;;;;;;;;;;;;;5035377;28;19927;-80
2021/12/17 20:31:13;;;;;;;;;;;;;;;;;;5033985;28;19928;-80
2021/12/17 20:33:43;;;;;;;;;;;;;;;;;;5034862;28;20016;-80
2021/12/17 20:36:08;;;;;;;;;;;;;;;;;;5031868;28;20023;-80
2021/12/17 20:38:34;;;;;;;;;;;;;;;;;;5034413;28;20318;-80
2021/12/17 20:41:04;;;;;;;;;;;;;;;;;;5033956;28;19924;-80
2021/12/17 20:43:37;;;;;;;;;;;;;;;;;;5035413;28;19913;-80
2021/12/17 20:46:03;;;;;;;;;;;;;;;;;;5034739;28;19928;-80
2021/12/17 20:48:31;;;;;;;;;;;;;;;;;;5033504;28;19966;-80
2021/12/17 20:50:56;;;;;;;;;;;;;;;;;;5035060;28;20254;-80